Terminal Aerodrome Forecast
Issued by NWS Dallas/Fort Worth, TX

Home | Current Version | Previous Version | Text Only | Print | Product List | Glossary On
Versions: 1 2 3 4 5 6 7 8 9 10 11 12 13 14 15 16 17 18 19 20 21 22 23 24 25 26 27 28 29 30 31 32
000
FTUS44 KFWD 281138
TAFACT
TAF
KACT 281138Z 2812/2912 16011KT 6SM BR OVC012
      TEMPO 2812/2816 4SM -DZ BR BKN006
     FM281600 15013KT P6SM OVC015
     FM282100 15014KT P6SM SCT015 OVC040
     FM290500 15014KT P6SM BKN015
     FM290800 14013KT 5SM TSRA SCT015CB OVC025
     FM291100 15014KT P6SM BKN035=

USA.gov is the U.S. government's official web portal to all federal, state and local government web resources and services.